sensor_id;sensor_type;location;lat;lon;timestamp;temperature;humidity
9414;DHT22;4746;35.664;139.738;2023-07-30T00:01:11;31.20;99.90
9414;DHT22;4746;35.664;139.738;2023-07-30T00:03:40;31.20;99.90
9414;DHT22;4746;35.664;139.738;2023-07-30T00:06:07;31.30;99.90
9414;DHT22;4746;35.664;139.738;2023-07-30T00:08:35;31.30;99.90
9414;DHT22;4746;35.664;139.738;2023-07-30T00:11:02;31.40;99.90
9414;DHT22;4746;35.664;139.738;2023-07-30T00:13:32;31.50;99.90
9414;DHT22;4746;35.664;139.738;2023-07-30T00:16:00;31.50;99.90
9414;DHT22;4746;35.664;139.738;2023-07-30T00:18:27;31.60;99.90
9414;DHT22;4746;35.664;139.738;2023-07-30T00:20:55;31.60;99.90
9414;DHT22;4746;35.664;139.738;2023-07-30T00:23:22;31.70;99.90
9414;DHT22;4746;35.664;139.738;2023-07-30T00:25:50;31.80;99.90
9414;DHT22;4746;35.664;139.738;2023-07-30T00:28:17;31.90;99.90
9414;DHT22;4746;35.664;139.738;2023-07-30T00:30:45;32.10;99.90
9414;DHT22;4746;35.664;139.738;2023-07-30T00:33:13;32.20;99.90
9414;DHT22;4746;35.664;139.738;2023-07-30T00:35:40;32.30;99.90
9414;DHT22;4746;35.664;139.738;2023-07-30T00:38:08;32.40;99.90
9414;DHT22;4746;35.664;139.738;2023-07-30T00:40:55;32.50;99.90
9414;DHT22;4746;35.664;139.738;2023-07-30T00:43:22;32.70;99.90
9414;DHT22;4746;35.664;139.738;2023-07-30T00:45:50;32.70;99.90
9414;DHT22;4746;35.664;139.738;2023-07-30T00:48:17;32.70;99.90
9414;DHT22;4746;35.664;139.738;2023-07-30T00:50:45;32.80;99.90
9414;DHT22;4746;35.664;139.738;2023-07-30T00:53:14;32.80;99.90
9414;DHT22;4746;35.664;139.738;2023-07-30T00:55:46;32.90;99.90
9414;DHT22;4746;35.664;139.738;2023-07-30T00:58:14;32.90;99.90
9414;DHT22;4746;35.664;139.738;2023-07-30T01:00:44;33.00;99.90
9414;DHT22;4746;35.664;139.738;2023-07-30T01:03:13;33.00;99.90
9414;DHT22;4746;35.664;139.738;2023-07-30T01:05:40;33.00;99.90
9414;DHT22;4746;35.664;139.738;2023-07-30T01:08:08;33.00;99.90
9414;DHT22;4746;35.664;139.738;2023-07-30T01:10:37;33.10;99.90
9414;DHT22;4746;35.664;139.738;2023-07-30T01:13:09;33.10;99.90
9414;DHT22;4746;35.664;139.738;2023-07-30T01:15:38;33.20;99.90
9414;DHT22;4746;35.664;139.738;2023-07-30T01:18:07;33.20;99.90
9414;DHT22;4746;35.664;139.738;2023-07-30T01:20:35;33.20;99.90
9414;DHT22;4746;35.664;139.738;2023-07-30T01:23:03;33.20;99.90
9414;DHT22;4746;35.664;139.738;2023-07-30T01:25:35;33.20;99.90
9414;DHT22;4746;35.664;139.738;2023-07-30T01:28:05;33.20;99.90
9414;DHT22;4746;35.664;139.738;2023-07-30T01:30:40;33.10;99.90
9414;DHT22;4746;35.664;139.738;2023-07-30T01:33:09;33.20;99.90
9414;DHT22;4746;35.664;139.738;2023-07-30T01:35:38;33.20;99.90
9414;DHT22;4746;35.664;139.738;2023-07-30T01:38:08;33.20;99.90
9414;DHT22;4746;35.664;139.738;2023-07-30T01:40:37;33.20;99.90
9414;DHT22;4746;35.664;139.738;2023-07-30T01:43:06;33.20;99.90
9414;DHT22;4746;35.664;139.738;2023-07-30T01:45:34;33.30;99.90
9414;DHT22;4746;35.664;139.738;2023-07-30T01:48:01;33.30;99.90
9414;DHT22;4746;35.664;139.738;2023-07-30T01:50:29;33.40;99.90
9414;DHT22;4746;35.664;139.738;2023-07-30T01:52:56;33.40;99.90
9414;DHT22;4746;35.664;139.738;2023-07-30T01:55:24;33.40;99.90
9414;DHT22;4746;35.664;139.738;2023-07-30T01:57:51;33.40;99.90
9414;DHT22;4746;35.664;139.738;2023-07-30T02:00:19;33.30;99.90
9414;DHT22;4746;35.664;139.738;2023-07-30T02:02:46;33.30;99.90
9414;DHT22;4746;35.664;139.738;2023-07-30T02:05:14;33.30;99.90
9414;DHT22;4746;35.664;139.738;2023-07-30T02:07:41;33.30;99.90
9414;DHT22;4746;35.664;139.738;2023-07-30T02:10:09;33.40;99.90
9414;DHT22;4746;35.664;139.738;2023-07-30T02:12:36;33.40;99.90
9414;DHT22;4746;35.664;139.738;2023-07-30T02:15:04;33.40;99.90
9414;DHT22;4746;35.664;139.738;2023-07-30T02:17:32;33.40;99.90
9414;DHT22;4746;35.664;139.738;2023-07-30T02:20:00;33.50;99.90
9414;DHT22;4746;35.664;139.738;2023-07-30T02:22:27;33.50;99.90
9414;DHT22;4746;35.664;139.738;2023-07-30T02:24:55;33.50;99.90
9414;DHT22;4746;35.664;139.738;2023-07-30T02:27:23;33.50;99.90
9414;DHT22;4746;35.664;139.738;2023-07-30T02:29:51;33.50;99.90
9414;DHT22;4746;35.664;139.738;2023-07-30T02:32:18;33.50;99.90
9414;DHT22;4746;35.664;139.738;2023-07-30T02:34:46;33.50;99.90
9414;DHT22;4746;35.664;139.738;2023-07-30T02:37:13;33.50;99.90
9414;DHT22;4746;35.664;139.738;2023-07-30T02:39:41;33.50;99.90
9414;DHT22;4746;35.664;139.738;2023-07-30T02:42:08;33.60;99.90
9414;DHT22;4746;35.664;139.738;2023-07-30T02:44:36;33.70;99.90
9414;DHT22;4746;35.664;139.738;2023-07-30T02:47:04;33.70;99.90
9414;DHT22;4746;35.664;139.738;2023-07-30T02:49:36;33.70;99.90
9414;DHT22;4746;35.664;139.738;2023-07-30T02:52:09;33.70;99.90
9414;DHT22;4746;35.664;139.738;2023-07-30T02:54:37;33.70;99.90
9414;DHT22;4746;35.664;139.738;2023-07-30T02:57:06;33.70;99.90
9414;DHT22;4746;35.664;139.738;2023-07-30T02:59:33;33.70;99.90
9414;DHT22;4746;35.664;139.738;2023-07-30T03:02:04;33.70;99.90
9414;DHT22;4746;35.664;139.738;2023-07-30T03:04:32;33.70;99.90
9414;DHT22;4746;35.664;139.738;2023-07-30T03:07:00;33.70;99.90
9414;DHT22;4746;35.664;139.738;2023-07-30T03:09:29;33.80;99.90
9414;DHT22;4746;35.664;139.738;2023-07-30T03:11:56;34.00;99.90
9414;DHT22;4746;35.664;139.738;2023-07-30T03:14:24;34.10;99.90
9414;DHT22;4746;35.664;139.738;2023-07-30T03:16:51;34.10;99.90
9414;DHT22;4746;35.664;139.738;2023-07-30T03:19:19;34.20;99.90
9414;DHT22;4746;35.664;139.738;2023-07-30T03:21:46;34.30;99.90
9414;DHT22;4746;35.664;139.738;2023-07-30T03:24:14;34.30;99.90
9414;DHT22;4746;35.664;139.738;2023-07-30T03:26:42;34.30;99.90
9414;DHT22;4746;35.664;139.738;2023-07-30T03:29:09;34.30;99.90
9414;DHT22;4746;35.664;139.738;2023-07-30T03:31:37;34.30;99.90
9414;DHT22;4746;35.664;139.738;2023-07-30T03:34:04;34.40;99.90
9414;DHT22;4746;35.664;139.738;2023-07-30T03:36:31;34.60;99.90
9414;DHT22;4746;35.664;139.738;2023-07-30T03:38:59;34.70;99.90
9414;DHT22;4746;35.664;139.738;2023-07-30T03:41:27;34.70;99.90
9414;DHT22;4746;35.664;139.738;2023-07-30T03:43:54;34.80;99.90
9414;DHT22;4746;35.664;139.738;2023-07-30T03:46:22;34.90;99.90
9414;DHT22;4746;35.664;139.738;2023-07-30T03:48:49;35.00;99.90
9414;DHT22;4746;35.664;139.738;2023-07-30T03:51:17;35.00;99.90
9414;DHT22;4746;35.664;139.738;2023-07-30T03:53:44;35.00;99.90
9414;DHT22;4746;35.664;139.738;2023-07-30T03:56:14;35.00;99.90
9414;DHT22;4746;35.664;139.738;2023-07-30T03:58:41;35.10;99.90
9414;DHT22;4746;35.664;139.738;2023-07-30T04:01:09;35.30;99.90
9414;DHT22;4746;35.664;139.738;2023-07-30T04:03:37;35.40;99.90
9414;DHT22;4746;35.664;139.738;2023-07-30T04:06:05;35.50;99.90
9414;DHT22;4746;35.664;139.738;2023-07-30T04:08:32;35.60;99.90
9414;DHT22;4746;35.664;139.738;2023-07-30T04:10:59;35.80;99.90
9414;DHT22;4746;35.664;139.738;2023-07-30T04:13:27;35.90;99.90
9414;DHT22;4746;35.664;139.738;2023-07-30T04:15:55;36.10;99.90
9414;DHT22;4746;35.664;139.738;2023-07-30T04:18:22;36.20;99.90
9414;DHT22;4746;35.664;139.738;2023-07-30T04:20:50;36.30;99.90
9414;DHT22;4746;35.664;139.738;2023-07-30T04:23:17;36.40;99.90
9414;DHT22;4746;35.664;139.738;2023-07-30T04:25:45;36.50;99.90
9414;DHT22;4746;35.664;139.738;2023-07-30T04:28:12;36.60;99.90
9414;DHT22;4746;35.664;139.738;2023-07-30T04:30:40;36.60;99.90
9414;DHT22;4746;35.664;139.738;2023-07-30T04:33:07;36.60;99.90
9414;DHT22;4746;35.664;139.738;2023-07-30T04:35:35;36.70;99.90
9414;DHT22;4746;35.664;139.738;2023-07-30T04:38:02;36.80;99.90
9414;DHT22;4746;35.664;139.738;2023-07-30T04:40:30;36.70;99.90
9414;DHT22;4746;35.664;139.738;2023-07-30T04:42:57;36.80;99.90
9414;DHT22;4746;35.664;139.738;2023-07-30T04:45:25;36.80;99.90
9414;DHT22;4746;35.664;139.738;2023-07-30T04:47:52;36.90;99.90
9414;DHT22;4746;35.664;139.738;2023-07-30T04:50:20;36.80;99.90
9414;DHT22;4746;35.664;139.738;2023-07-30T04:52:47;36.80;99.90
9414;DHT22;4746;35.664;139.738;2023-07-30T04:55:15;37.00;99.90
9414;DHT22;4746;35.664;139.738;2023-07-30T04:57:42;37.10;99.90
9414;DHT22;4746;35.664;139.738;2023-07-30T05:00:10;37.30;99.90
9414;DHT22;4746;35.664;139.738;2023-07-30T05:02:38;37.40;99.90
9414;DHT22;4746;35.664;139.738;2023-07-30T05:05:05;37.50;99.90
9414;DHT22;4746;35.664;139.738;2023-07-30T05:07:33;37.60;99.90
9414;DHT22;4746;35.664;139.738;2023-07-30T05:10:01;37.70;99.90
9414;DHT22;4746;35.664;139.738;2023-07-30T05:12:28;37.70;99.90
9414;DHT22;4746;35.664;139.738;2023-07-30T05:14:56;37.80;99.90
9414;DHT22;4746;35.664;139.738;2023-07-30T05:17:23;37.90;99.90
9414;DHT22;4746;35.664;139.738;2023-07-30T05:19:51;38.00;99.90
9414;DHT22;4746;35.664;139.738;2023-07-30T05:22:18;38.00;99.90
9414;DHT22;4746;35.664;139.738;2023-07-30T05:24:46;38.00;99.90
9414;DHT22;4746;35.664;139.738;2023-07-30T05:27:13;38.20;99.90
9414;DHT22;4746;35.664;139.738;2023-07-30T05:29:41;38.30;99.90
9414;DHT22;4746;35.664;139.738;2023-07-30T05:32:09;38.20;99.90
9414;DHT22;4746;35.664;139.738;2023-07-30T05:34:36;38.20;99.90
9414;DHT22;4746;35.664;139.738;2023-07-30T05:37:04;38.30;99.90
9414;DHT22;4746;35.664;139.738;2023-07-30T05:39:31;38.50;99.90
9414;DHT22;4746;35.664;139.738;2023-07-30T05:41:59;38.50;99.90
9414;DHT22;4746;35.664;139.738;2023-07-30T05:44:26;38.60;99.90
9414;DHT22;4746;35.664;139.738;2023-07-30T05:46:54;38.60;99.90
9414;DHT22;4746;35.664;139.738;2023-07-30T05:49:21;38.60;99.90
9414;DHT22;4746;35.664;139.738;2023-07-30T05:51:49;38.70;99.90
9414;DHT22;4746;35.664;139.738;2023-07-30T05:54:17;38.50;99.90
9414;DHT22;4746;35.664;139.738;2023-07-30T05:56:45;38.60;99.90
9414;DHT22;4746;35.664;139.738;2023-07-30T05:59:12;38.90;99.90
9414;DHT22;4746;35.664;139.738;2023-07-30T06:01:40;39.20;99.90
9414;DHT22;4746;35.664;139.738;2023-07-30T06:04:08;39.40;99.90
9414;DHT22;4746;35.664;139.738;2023-07-30T06:06:35;39.40;99.90
9414;DHT22;4746;35.664;139.738;2023-07-30T06:09:03;39.40;99.90
9414;DHT22;4746;35.664;139.738;2023-07-30T06:11:31;39.50;99.90
9414;DHT22;4746;35.664;139.738;2023-07-30T06:13:58;39.80;99.90
9414;DHT22;4746;35.664;139.738;2023-07-30T06:16:26;39.60;99.90
9414;DHT22;4746;35.664;139.738;2023-07-30T06:18:54;39.70;99.90
9414;DHT22;4746;35.664;139.738;2023-07-30T06:21:21;39.80;99.90
9414;DHT22;4746;35.664;139.738;2023-07-30T06:23:49;39.90;99.90
9414;DHT22;4746;35.664;139.738;2023-07-30T06:26:17;40.00;99.90
9414;DHT22;4746;35.664;139.738;2023-07-30T06:28:44;40.20;99.90
9414;DHT22;4746;35.664;139.738;2023-07-30T06:31:12;40.60;99.90
9414;DHT22;4746;35.664;139.738;2023-07-30T06:33:39;40.80;99.90
9414;DHT22;4746;35.664;139.738;2023-07-30T06:36:07;41.10;99.90
9414;DHT22;4746;35.664;139.738;2023-07-30T06:38:34;41.60;99.90
9414;DHT22;4746;35.664;139.738;2023-07-30T06:41:02;42.30;99.90
9414;DHT22;4746;35.664;139.738;2023-07-30T06:43:30;43.00;99.90
9414;DHT22;4746;35.664;139.738;2023-07-30T06:45:57;43.40;99.90
9414;DHT22;4746;35.664;139.738;2023-07-30T06:48:25;43.90;99.90
9414;DHT22;4746;35.664;139.738;2023-07-30T06:50:54;44.20;99.90
9414;DHT22;4746;35.664;139.738;2023-07-30T06:53:22;44.60;99.90
9414;DHT22;4746;35.664;139.738;2023-07-30T06:55:49;44.90;99.90
9414;DHT22;4746;35.664;139.738;2023-07-30T06:58:17;44.80;99.90
9414;DHT22;4746;35.664;139.738;2023-07-30T07:00:44;45.00;99.90
9414;DHT22;4746;35.664;139.738;2023-07-30T07:03:12;45.60;99.90
9414;DHT22;4746;35.664;139.738;2023-07-30T07:05:39;45.70;99.90
9414;DHT22;4746;35.664;139.738;2023-07-30T07:08:07;46.00;99.30
9414;DHT22;4746;35.664;139.738;2023-07-30T07:10:34;46.50;97.10
9414;DHT22;4746;35.664;139.738;2023-07-30T07:13:01;46.60;94.30
9414;DHT22;4746;35.664;139.738;2023-07-30T07:15:29;46.90;92.50
9414;DHT22;4746;35.664;139.738;2023-07-30T07:17:56;46.50;91.50
9414;DHT22;4746;35.664;139.738;2023-07-30T07:20:24;47.00;90.50
9414;DHT22;4746;35.664;139.738;2023-07-30T07:22:53;46.80;89.30
9414;DHT22;4746;35.664;139.738;2023-07-30T07:25:21;46.20;87.70
9414;DHT22;4746;35.664;139.738;2023-07-30T07:27:48;46.10;89.20
9414;DHT22;4746;35.664;139.738;2023-07-30T07:30:16;46.40;88.60
9414;DHT22;4746;35.664;139.738;2023-07-30T07:32:43;46.40;87.20
9414;DHT22;4746;35.664;139.738;2023-07-30T07:35:11;46.10;87.80
9414;DHT22;4746;35.664;139.738;2023-07-30T07:37:38;45.80;90.60
9414;DHT22;4746;35.664;139.738;2023-07-30T07:40:07;46.10;90.40
9414;DHT22;4746;35.664;139.738;2023-07-30T07:42:39;46.60;88.20
9414;DHT22;4746;35.664;139.738;2023-07-30T07:45:07;46.70;86.10
9414;DHT22;4746;35.664;139.738;2023-07-30T07:47:36;47.10;86.00
9414;DHT22;4746;35.664;139.738;2023-07-30T07:50:04;46.80;85.30
9414;DHT22;4746;35.664;139.738;2023-07-30T07:52:32;47.20;82.30
9414;DHT22;4746;35.664;139.738;2023-07-30T07:55:00;47.40;82.60
9414;DHT22;4746;35.664;139.738;2023-07-30T07:57:28;47.60;81.10
9414;DHT22;4746;35.664;139.738;2023-07-30T07:59:56;47.70;79.00
9414;DHT22;4746;35.664;139.738;2023-07-30T08:02:24;47.90;77.00
9414;DHT22;4746;35.664;139.738;2023-07-30T08:04:52;47.50;77.40
9414;DHT22;4746;35.664;139.738;2023-07-30T08:07:19;47.20;77.00
9414;DHT22;4746;35.664;139.738;2023-07-30T08:09:47;46.90;77.10
9414;DHT22;4746;35.664;139.738;2023-07-30T08:12:14;46.80;78.80
9414;DHT22;4746;35.664;139.738;2023-07-30T08:14:42;46.40;79.80
9414;DHT22;4746;35.664;139.738;2023-07-30T08:17:10;45.70;81.50
9414;DHT22;4746;35.664;139.738;2023-07-30T08:19:38;45.70;82.60
9414;DHT22;4746;35.664;139.738;2023-07-30T08:22:05;45.30;85.20
9414;DHT22;4746;35.664;139.738;2023-07-30T08:24:33;45.10;87.70
9414;DHT22;4746;35.664;139.738;2023-07-30T08:27:00;44.80;90.10
9414;DHT22;4746;35.664;139.738;2023-07-30T08:29:28;44.80;90.90
9414;DHT22;4746;35.664;139.738;2023-07-30T08:31:55;44.50;90.50
9414;DHT22;4746;35.664;139.738;2023-07-30T08:34:23;43.90;91.60
9414;DHT22;4746;35.664;139.738;2023-07-30T08:36:51;43.60;93.30
9414;DHT22;4746;35.664;139.738;2023-07-30T08:39:18;43.50;94.00
9414;DHT22;4746;35.664;139.738;2023-07-30T08:41:46;43.50;94.50
9414;DHT22;4746;35.664;139.738;2023-07-30T08:44:14;43.80;94.70
9414;DHT22;4746;35.664;139.738;2023-07-30T08:46:41;43.20;95.40
9414;DHT22;4746;35.664;139.738;2023-07-30T08:49:09;42.70;96.80
9414;DHT22;4746;35.664;139.738;2023-07-30T08:51:37;42.50;98.20
9414;DHT22;4746;35.664;139.738;2023-07-30T08:54:07;42.20;99.90
9414;DHT22;4746;35.664;139.738;2023-07-30T08:56:36;41.70;99.90
9414;DHT22;4746;35.664;139.738;2023-07-30T08:59:04;41.50;99.90
9414;DHT22;4746;35.664;139.738;2023-07-30T09:01:37;41.30;99.90
9414;DHT22;4746;35.664;139.738;2023-07-30T09:04:06;40.80;99.90
9414;DHT22;4746;35.664;139.738;2023-07-30T09:06:35;40.40;99.90
9414;DHT22;4746;35.664;139.738;2023-07-30T09:09:05;40.10;99.90
9414;DHT22;4746;35.664;139.738;2023-07-30T09:11:33;39.40;99.90
9414;DHT22;4746;35.664;139.738;2023-07-30T09:14:01;39.10;99.90
9414;DHT22;4746;35.664;139.738;2023-07-30T09:16:29;38.80;99.90
9414;DHT22;4746;35.664;139.738;2023-07-30T09:18:56;38.50;99.90
9414;DHT22;4746;35.664;139.738;2023-07-30T09:21:34;37.90;99.90
9414;DHT22;4746;35.664;139.738;2023-07-30T09:24:03;37.20;99.90
9414;DHT22;4746;35.664;139.738;2023-07-30T09:26:44;36.60;99.90
9414;DHT22;4746;35.664;139.738;2023-07-30T09:29:13;35.80;99.90
9414;DHT22;4746;35.664;139.738;2023-07-30T09:31:51;35.00;99.90
9414;DHT22;4746;35.664;139.738;2023-07-30T09:34:24;34.50;99.90
9414;DHT22;4746;35.664;139.738;2023-07-30T09:36:53;33.90;99.90
9414;DHT22;4746;35.664;139.738;2023-07-30T09:39:25;33.50;99.90
9414;DHT22;4746;35.664;139.738;2023-07-30T09:42:00;33.40;99.90
9414;DHT22;4746;35.664;139.738;2023-07-30T09:44:27;33.10;99.90
9414;DHT22;4746;35.664;139.738;2023-07-30T09:46:58;32.80;99.90
9414;DHT22;4746;35.664;139.738;2023-07-30T09:49:27;32.60;99.90
9414;DHT22;4746;35.664;139.738;2023-07-30T09:51:55;32.50;99.90
9414;DHT22;4746;35.664;139.738;2023-07-30T09:54:23;32.40;99.90
9414;DHT22;4746;35.664;139.738;2023-07-30T09:56:52;32.20;99.90
9414;DHT22;4746;35.664;139.738;2023-07-30T09:59:19;32.10;99.90
9414;DHT22;4746;35.664;139.738;2023-07-30T10:01:48;31.90;99.90
9414;DHT22;4746;35.664;139.738;2023-07-30T10:04:25;31.80;99.90
9414;DHT22;4746;35.664;139.738;2023-07-30T10:07:01;31.60;99.90
9414;DHT22;4746;35.664;139.738;2023-07-30T10:09:39;31.60;99.90
9414;DHT22;4746;35.664;139.738;2023-07-30T10:12:18;31.40;99.90
9414;DHT22;4746;35.664;139.738;2023-07-30T10:14:50;31.40;99.90
9414;DHT22;4746;35.664;139.738;2023-07-30T10:17:21;31.30;99.90
9414;DHT22;4746;35.664;139.738;2023-07-30T10:19:50;31.20;99.90
9414;DHT22;4746;35.664;139.738;2023-07-30T10:25:04;31.20;99.90
9414;DHT22;4746;35.664;139.738;2023-07-30T10:27:41;31.20;99.90
9414;DHT22;4746;35.664;139.738;2023-07-30T10:30:21;31.20;99.90
9414;DHT22;4746;35.664;139.738;2023-07-30T10:38:30;31.10;99.90
9414;DHT22;4746;35.664;139.738;2023-07-30T10:41:05;31.10;99.90
9414;DHT22;4746;35.664;139.738;2023-07-30T10:43:42;31.00;99.90
9414;DHT22;4746;35.664;139.738;2023-07-30T10:46:12;31.00;99.90
9414;DHT22;4746;35.664;139.738;2023-07-30T10:48:42;31.00;99.90
9414;DHT22;4746;35.664;139.738;2023-07-30T10:51:12;30.90;99.90
9414;DHT22;4746;35.664;139.738;2023-07-30T10:53:46;30.90;99.90
9414;DHT22;4746;35.664;139.738;2023-07-30T10:56:22;30.80;99.90
9414;DHT22;4746;35.664;139.738;2023-07-30T10:58:52;30.70;99.90
9414;DHT22;4746;35.664;139.738;2023-07-30T11:01:25;30.70;99.90
9414;DHT22;4746;35.664;139.738;2023-07-30T11:03:53;30.70;99.90
9414;DHT22;4746;35.664;139.738;2023-07-30T11:06:25;30.70;99.90
9414;DHT22;4746;35.664;139.738;2023-07-30T11:08:53;30.70;99.90
9414;DHT22;4746;35.664;139.738;2023-07-30T11:11:21;30.60;99.90
9414;DHT22;4746;35.664;139.738;2023-07-30T11:13:50;30.70;99.90
9414;DHT22;4746;35.664;139.738;2023-07-30T11:16:18;30.70;99.90
9414;DHT22;4746;35.664;139.738;2023-07-30T11:18:45;30.70;99.90
9414;DHT22;4746;35.664;139.738;2023-07-30T11:21:15;30.60;99.90
9414;DHT22;4746;35.664;139.738;2023-07-30T11:23:45;30.50;99.90
9414;DHT22;4746;35.664;139.738;2023-07-30T11:26:18;30.30;99.90
9414;DHT22;4746;35.664;139.738;2023-07-30T11:28:46;30.40;99.90
9414;DHT22;4746;35.664;139.738;2023-07-30T11:31:15;30.40;99.90
9414;DHT22;4746;35.664;139.738;2023-07-30T11:33:50;30.30;99.90
9414;DHT22;4746;35.664;139.738;2023-07-30T11:36:27;30.30;99.90
9414;DHT22;4746;35.664;139.738;2023-07-30T11:38:55;30.20;99.90
9414;DHT22;4746;35.664;139.738;2023-07-30T11:41:24;30.10;99.90
9414;DHT22;4746;35.664;139.738;2023-07-30T11:43:52;30.10;99.90
9414;DHT22;4746;35.664;139.738;2023-07-30T11:46:21;30.10;99.90
9414;DHT22;4746;35.664;139.738;2023-07-30T11:48:53;30.00;99.90
9414;DHT22;4746;35.664;139.738;2023-07-30T11:51:36;30.10;99.90
9414;DHT22;4746;35.664;139.738;2023-07-30T11:54:07;30.00;99.90
9414;DHT22;4746;35.664;139.738;2023-07-30T11:56:34;30.10;99.90
9414;DHT22;4746;35.664;139.738;2023-07-30T11:59:07;30.10;99.90
9414;DHT22;4746;35.664;139.738;2023-07-30T12:01:36;30.20;99.90
9414;DHT22;4746;35.664;139.738;2023-07-30T12:04:05;30.20;99.90
9414;DHT22;4746;35.664;139.738;2023-07-30T12:06:47;30.10;99.90
9414;DHT22;4746;35.664;139.738;2023-07-30T12:09:22;30.10;99.90
9414;DHT22;4746;35.664;139.738;2023-07-30T12:12:01;30.10;99.90
9414;DHT22;4746;35.664;139.738;2023-07-30T12:17:36;30.10;99.90
9414;DHT22;4746;35.664;139.738;2023-07-30T12:20:05;30.10;99.90
9414;DHT22;4746;35.664;139.738;2023-07-30T12:22:35;30.10;99.90
9414;DHT22;4746;35.664;139.738;2023-07-30T12:25:05;30.20;99.90
9414;DHT22;4746;35.664;139.738;2023-07-30T12:27:35;30.20;99.90
9414;DHT22;4746;35.664;139.738;2023-07-30T12:30:02;30.10;99.90
9414;DHT22;4746;35.664;139.738;2023-07-30T12:32:30;30.10;99.90
9414;DHT22;4746;35.664;139.738;2023-07-30T12:34:58;30.10;99.90
9414;DHT22;4746;35.664;139.738;2023-07-30T12:37:25;30.10;99.90
9414;DHT22;4746;35.664;139.738;2023-07-30T12:39:53;30.10;99.90
9414;DHT22;4746;35.664;139.738;2023-07-30T12:42:20;30.10;99.90
9414;DHT22;4746;35.664;139.738;2023-07-30T12:44:48;30.10;99.90
9414;DHT22;4746;35.664;139.738;2023-07-30T12:47:15;30.10;99.90
9414;DHT22;4746;35.664;139.738;2023-07-30T12:49:43;30.10;99.90
9414;DHT22;4746;35.664;139.738;2023-07-30T12:52:10;30.10;99.90
9414;DHT22;4746;35.664;139.738;2023-07-30T12:54:39;30.10;99.90
9414;DHT22;4746;35.664;139.738;2023-07-30T12:57:07;30.10;99.90
9414;DHT22;4746;35.664;139.738;2023-07-30T12:59:34;30.10;99.90
9414;DHT22;4746;35.664;139.738;2023-07-30T13:02:02;30.10;99.90
9414;DHT22;4746;35.664;139.738;2023-07-30T13:04:30;30.00;99.90
9414;DHT22;4746;35.664;139.738;2023-07-30T13:06:57;30.00;99.90
9414;DHT22;4746;35.664;139.738;2023-07-30T13:09:25;29.90;99.90
9414;DHT22;4746;35.664;139.738;2023-07-30T13:11:52;29.90;99.90
9414;DHT22;4746;35.664;139.738;2023-07-30T13:14:20;30.00;99.90
9414;DHT22;4746;35.664;139.738;2023-07-30T13:16:47;30.00;99.90
9414;DHT22;4746;35.664;139.738;2023-07-30T13:19:15;30.00;99.90
9414;DHT22;4746;35.664;139.738;2023-07-30T13:21:42;30.00;99.90
9414;DHT22;4746;35.664;139.738;2023-07-30T13:24:12;30.00;99.90
9414;DHT22;4746;35.664;139.738;2023-07-30T13:26:39;30.00;99.90
9414;DHT22;4746;35.664;139.738;2023-07-30T13:29:07;30.00;99.90
9414;DHT22;4746;35.664;139.738;2023-07-30T13:31:34;30.00;99.90
9414;DHT22;4746;35.664;139.738;2023-07-30T13:34:02;29.90;99.90
9414;DHT22;4746;35.664;139.738;2023-07-30T13:36:29;29.90;99.90
9414;DHT22;4746;35.664;139.738;2023-07-30T13:38:57;29.90;99.90
9414;DHT22;4746;35.664;139.738;2023-07-30T13:41:24;29.90;99.90
9414;DHT22;4746;35.664;139.738;2023-07-30T13:43:52;29.90;99.90
9414;DHT22;4746;35.664;139.738;2023-07-30T13:46:19;29.90;99.90
9414;DHT22;4746;35.664;139.738;2023-07-30T13:48:47;29.90;99.90
9414;DHT22;4746;35.664;139.738;2023-07-30T13:51:14;29.90;99.90
9414;DHT22;4746;35.664;139.738;2023-07-30T13:53:41;29.80;99.90
9414;DHT22;4746;35.664;139.738;2023-07-30T13:56:09;29.80;99.90
9414;DHT22;4746;35.664;139.738;2023-07-30T13:58:36;29.80;99.90
9414;DHT22;4746;35.664;139.738;2023-07-30T14:01:06;29.80;99.90
9414;DHT22;4746;35.664;139.738;2023-07-30T14:03:35;29.80;99.90
9414;DHT22;4746;35.664;139.738;2023-07-30T14:06:03;29.70;99.90
9414;DHT22;4746;35.664;139.738;2023-07-30T14:08:30;29.70;99.90
9414;DHT22;4746;35.664;139.738;2023-07-30T14:10:58;29.70;99.90
9414;DHT22;4746;35.664;139.738;2023-07-30T14:13:26;29.70;99.90
9414;DHT22;4746;35.664;139.738;2023-07-30T14:15:54;29.60;99.90
9414;DHT22;4746;35.664;139.738;2023-07-30T14:18:25;29.60;99.90
9414;DHT22;4746;35.664;139.738;2023-07-30T14:20:53;29.60;99.90
9414;DHT22;4746;35.664;139.738;2023-07-30T14:23:20;29.50;99.90
9414;DHT22;4746;35.664;139.738;2023-07-30T14:25:48;29.60;99.90
9414;DHT22;4746;35.664;139.738;2023-07-30T14:28:16;29.50;99.90
9414;DHT22;4746;35.664;139.738;2023-07-30T14:30:43;29.50;99.90
9414;DHT22;4746;35.664;139.738;2023-07-30T14:33:14;29.50;99.90
9414;DHT22;4746;35.664;139.738;2023-07-30T14:35:41;29.50;99.90
9414;DHT22;4746;35.664;139.738;2023-07-30T14:38:09;29.50;99.90
9414;DHT22;4746;35.664;139.738;2023-07-30T14:40:36;29.40;99.90
9414;DHT22;4746;35.664;139.738;2023-07-30T14:43:04;29.40;99.90
9414;DHT22;4746;35.664;139.738;2023-07-30T14:45:31;29.40;99.90
9414;DHT22;4746;35.664;139.738;2023-07-30T14:47:59;29.40;99.90
9414;DHT22;4746;35.664;139.738;2023-07-30T14:50:27;29.40;99.90
9414;DHT22;4746;35.664;139.738;2023-07-30T14:52:55;29.40;99.90
9414;DHT22;4746;35.664;139.738;2023-07-30T14:55:23;29.40;99.90
9414;DHT22;4746;35.664;139.738;2023-07-30T14:57:50;29.40;99.90
9414;DHT22;4746;35.664;139.738;2023-07-30T15:00:18;29.40;99.90
9414;DHT22;4746;35.664;139.738;2023-07-30T15:02:48;29.30;99.90
9414;DHT22;4746;35.664;139.738;2023-07-30T15:05:16;29.40;99.90
9414;DHT22;4746;35.664;139.738;2023-07-30T15:07:43;29.40;99.90
9414;DHT22;4746;35.664;139.738;2023-07-30T15:10:11;29.40;99.90
9414;DHT22;4746;35.664;139.738;2023-07-30T15:12:38;29.40;99.90
9414;DHT22;4746;35.664;139.738;2023-07-30T15:15:07;29.40;99.90
9414;DHT22;4746;35.664;139.738;2023-07-30T15:17:35;29.40;99.90
9414;DHT22;4746;35.664;139.738;2023-07-30T15:20:02;29.50;99.90
9414;DHT22;4746;35.664;139.738;2023-07-30T15:22:30;29.50;99.90
9414;DHT22;4746;35.664;139.738;2023-07-30T15:24:58;29.50;99.90
9414;DHT22;4746;35.664;139.738;2023-07-30T15:27:25;29.40;99.90
9414;DHT22;4746;35.664;139.738;2023-07-30T15:29:53;29.40;99.90
9414;DHT22;4746;35.664;139.738;2023-07-30T15:32:20;29.40;99.90
9414;DHT22;4746;35.664;139.738;2023-07-30T15:34:48;29.40;99.90
9414;DHT22;4746;35.664;139.738;2023-07-30T15:37:16;29.40;99.90
9414;DHT22;4746;35.664;139.738;2023-07-30T15:39:43;29.40;99.90
9414;DHT22;4746;35.664;139.738;2023-07-30T15:42:11;29.40;99.90
9414;DHT22;4746;35.664;139.738;2023-07-30T15:44:38;29.40;99.90
9414;DHT22;4746;35.664;139.738;2023-07-30T15:47:06;29.40;99.90
9414;DHT22;4746;35.664;139.738;2023-07-30T15:49:34;29.40;99.90